<?xml version="1.0" encoding="UTF-8" standalone="no" ?>
<gpx xmlns="http://www.topografix.com/GPX/1/1" xmlns:xsi="http://www.w3.org/2001/XMLSchema-instance" xsi:schemaLocation="http://www.topografix.com/GPX/1/1 http://www.topografix.com/GPX/1/1/gpx.xsd" version="1.1" creator="VisuGPX - https://www.visugpx.com">
  <metadata>
    <name>MN-STGermain-12km</name>
    <desc><![CDATA[Circuit autour de St Germain Nuelles]]></desc>
  </metadata>
  <trk>
    <name><![CDATA[MN-STGermain-12km_1]]></name>
    <trkseg>
      <trkpt lat="45.86204" lon="4.62414">
        <ele>302</ele>
        <time>2021-10-19T09:46:52Z</time>
      </trkpt>
      <trkpt lat="45.8629" lon="4.62219">
        <ele>308</ele>
        <time>2021-10-19T09:47:30Z</time>
      </trkpt>
      <trkpt lat="45.86219" lon="4.62154">
        <ele>316</ele>
        <time>2021-10-19T09:47:49Z</time>
      </trkpt>
      <trkpt lat="45.86415" lon="4.62046">
        <ele>318</ele>
        <time>2021-10-19T09:48:38Z</time>
      </trkpt>
      <trkpt lat="45.86347" lon="4.6201">
        <ele>322</ele>
        <time>2021-10-19T09:48:55Z</time>
      </trkpt>
      <trkpt lat="45.86292" lon="4.61883">
        <ele>327</ele>
        <time>2021-10-19T09:49:19Z</time>
      </trkpt>
      <trkpt lat="45.86312" lon="4.61782">
        <ele>326</ele>
        <time>2021-10-19T09:49:37Z</time>
      </trkpt>
      <trkpt lat="45.86267" lon="4.61725">
        <ele>326</ele>
        <time>2021-10-19T09:49:51Z</time>
      </trkpt>
      <trkpt lat="45.86285" lon="4.61685">
        <ele>324</ele>
        <time>2021-10-19T09:49:58Z</time>
      </trkpt>
      <trkpt lat="45.86423" lon="4.61761">
        <ele>323</ele>
        <time>2021-10-19T09:50:33Z</time>
      </trkpt>
      <trkpt lat="45.86513" lon="4.61916">
        <ele>318</ele>
        <time>2021-10-19T09:51:06Z</time>
      </trkpt>
      <trkpt lat="45.86621" lon="4.61959">
        <ele>313</ele>
        <time>2021-10-19T09:51:32Z</time>
      </trkpt>
      <trkpt lat="45.86647" lon="4.62103">
        <ele>314</ele>
        <time>2021-10-19T09:51:56Z</time>
      </trkpt>
      <trkpt lat="45.86536" lon="4.62392">
        <ele>306</ele>
        <time>2021-10-19T09:52:50Z</time>
      </trkpt>
      <trkpt lat="45.86498" lon="4.6263">
        <ele>295</ele>
        <time>2021-10-19T09:53:29Z</time>
      </trkpt>
      <trkpt lat="45.86704" lon="4.62933">
        <ele>300</ele>
        <time>2021-10-19T09:54:38Z</time>
      </trkpt>
      <trkpt lat="45.86734" lon="4.62605">
        <ele>309</ele>
        <time>2021-10-19T09:55:32Z</time>
      </trkpt>
      <trkpt lat="45.87013" lon="4.62399">
        <ele>315</ele>
        <time>2021-10-19T09:56:45Z</time>
      </trkpt>
      <trkpt lat="45.87109" lon="4.62363">
        <ele>316</ele>
        <time>2021-10-19T09:57:08Z</time>
      </trkpt>
      <trkpt lat="45.87142" lon="4.62326">
        <ele>318</ele>
        <time>2021-10-19T09:57:18Z</time>
      </trkpt>
      <trkpt lat="45.87036" lon="4.62257">
        <ele>319</ele>
        <time>2021-10-19T09:57:45Z</time>
      </trkpt>
      <trkpt lat="45.86963" lon="4.62193">
        <ele>318</ele>
        <time>2021-10-19T09:58:05Z</time>
      </trkpt>
      <trkpt lat="45.86849" lon="4.62142">
        <ele>318</ele>
        <time>2021-10-19T09:58:33Z</time>
      </trkpt>
      <trkpt lat="45.86771" lon="4.62053">
        <ele>320</ele>
        <time>2021-10-19T09:58:57Z</time>
      </trkpt>
      <trkpt lat="45.86693" lon="4.61981">
        <ele>316</ele>
        <time>2021-10-19T09:59:18Z</time>
      </trkpt>
      <trkpt lat="45.86698" lon="4.61933">
        <ele>316</ele>
        <time>2021-10-19T09:59:26Z</time>
      </trkpt>
      <trkpt lat="45.86663" lon="4.6177">
        <ele>318</ele>
        <time>2021-10-19T09:59:54Z</time>
      </trkpt>
      <trkpt lat="45.86645" lon="4.61632">
        <ele>327</ele>
        <time>2021-10-19T10:00:17Z</time>
      </trkpt>
      <trkpt lat="45.8668" lon="4.61275">
        <ele>346</ele>
        <time>2021-10-19T10:01:15Z</time>
      </trkpt>
      <trkpt lat="45.86771" lon="4.61315">
        <ele>352</ele>
        <time>2021-10-19T10:01:38Z</time>
      </trkpt>
      <trkpt lat="45.8699" lon="4.61514">
        <ele>357</ele>
        <time>2021-10-19T10:02:38Z</time>
      </trkpt>
      <trkpt lat="45.87103" lon="4.61443">
        <ele>361</ele>
        <time>2021-10-19T10:03:07Z</time>
      </trkpt>
      <trkpt lat="45.87162" lon="4.61359">
        <ele>366</ele>
        <time>2021-10-19T10:03:26Z</time>
      </trkpt>
      <trkpt lat="45.87167" lon="4.61277">
        <ele>369</ele>
        <time>2021-10-19T10:03:40Z</time>
      </trkpt>
      <trkpt lat="45.87181" lon="4.61195">
        <ele>375</ele>
        <time>2021-10-19T10:03:53Z</time>
      </trkpt>
      <trkpt lat="45.87126" lon="4.6116">
        <ele>380</ele>
        <time>2021-10-19T10:04:07Z</time>
      </trkpt>
      <trkpt lat="45.87013" lon="4.61188">
        <ele>379</ele>
        <time>2021-10-19T10:04:34Z</time>
      </trkpt>
      <trkpt lat="45.8692" lon="4.61175">
        <ele>375</ele>
        <time>2021-10-19T10:04:56Z</time>
      </trkpt>
      <trkpt lat="45.86956" lon="4.61065">
        <ele>383</ele>
        <time>2021-10-19T10:05:16Z</time>
      </trkpt>
      <trkpt lat="45.87006" lon="4.61004">
        <ele>389</ele>
        <time>2021-10-19T10:05:31Z</time>
      </trkpt>
      <trkpt lat="45.87009" lon="4.60971">
        <ele>389</ele>
        <time>2021-10-19T10:05:37Z</time>
      </trkpt>
      <trkpt lat="45.87061" lon="4.60897">
        <ele>389</ele>
        <time>2021-10-19T10:05:54Z</time>
      </trkpt>
      <trkpt lat="45.86956" lon="4.60795">
        <ele>386</ele>
        <time>2021-10-19T10:06:23Z</time>
      </trkpt>
      <trkpt lat="45.86936" lon="4.60695">
        <ele>381</ele>
        <time>2021-10-19T10:06:40Z</time>
      </trkpt>
      <trkpt lat="45.86922" lon="4.60652">
        <ele>378</ele>
        <time>2021-10-19T10:06:48Z</time>
      </trkpt>
      <trkpt lat="45.86913" lon="4.60535">
        <ele>373</ele>
        <time>2021-10-19T10:07:07Z</time>
      </trkpt>
      <trkpt lat="45.86869" lon="4.60471">
        <ele>368</ele>
        <time>2021-10-19T10:07:22Z</time>
      </trkpt>
      <trkpt lat="45.86776" lon="4.60496">
        <ele>367</ele>
        <time>2021-10-19T10:07:44Z</time>
      </trkpt>
      <trkpt lat="45.86689" lon="4.60517">
        <ele>364.2</ele>
      </trkpt>
      <trkpt lat="45.86617" lon="4.60554">
        <ele>360.3</ele>
      </trkpt>
      <trkpt lat="45.86564" lon="4.60551">
        <ele>358.5</ele>
      </trkpt>
      <trkpt lat="45.86562" lon="4.60549">
        <ele>358</ele>
        <time>2021-10-19T09:25:57Z</time>
      </trkpt>
      <trkpt lat="45.86511" lon="4.60561">
        <ele>355</ele>
        <time>2021-10-19T09:26:09Z</time>
      </trkpt>
      <trkpt lat="45.8646" lon="4.60379">
        <ele>363</ele>
        <time>2021-10-19T09:26:41Z</time>
      </trkpt>
      <trkpt lat="45.8635" lon="4.60173">
        <ele>350</ele>
        <time>2021-10-19T09:27:23Z</time>
      </trkpt>
      <trkpt lat="45.86215" lon="4.60015">
        <ele>336</ele>
        <time>2021-10-19T09:28:04Z</time>
      </trkpt>
      <trkpt lat="45.86143" lon="4.59991">
        <ele>332</ele>
        <time>2021-10-19T09:28:21Z</time>
      </trkpt>
      <trkpt lat="45.86126" lon="4.59938">
        <ele>329</ele>
        <time>2021-10-19T09:28:30Z</time>
      </trkpt>
      <trkpt lat="45.8585" lon="4.59971">
        <ele>314</ele>
        <time>2021-10-19T09:29:35Z</time>
      </trkpt>
      <trkpt lat="45.85805" lon="4.59949">
        <ele>311</ele>
        <time>2021-10-19T09:29:46Z</time>
      </trkpt>
      <trkpt lat="45.8578" lon="4.60054">
        <ele>311</ele>
        <time>2021-10-19T09:30:04Z</time>
      </trkpt>
      <trkpt lat="45.85797" lon="4.60126">
        <ele>313</ele>
        <time>2021-10-19T09:30:16Z</time>
      </trkpt>
      <trkpt lat="45.85845" lon="4.60083">
        <ele>315</ele>
        <time>2021-10-19T09:30:30Z</time>
      </trkpt>
      <trkpt lat="45.86001" lon="4.60407">
        <ele>326</ele>
        <time>2021-10-19T09:31:34Z</time>
      </trkpt>
      <trkpt lat="45.86172" lon="4.60512">
        <ele>339</ele>
        <time>2021-10-19T09:32:17Z</time>
      </trkpt>
      <trkpt lat="45.86081" lon="4.60613">
        <ele>336</ele>
        <time>2021-10-19T09:32:44Z</time>
      </trkpt>
      <trkpt lat="45.86028" lon="4.60563">
        <ele>335</ele>
        <time>2021-10-19T09:32:59Z</time>
      </trkpt>
      <trkpt lat="45.85619" lon="4.60436">
        <ele>323</ele>
        <time>2021-10-19T09:34:37Z</time>
      </trkpt>
      <trkpt lat="45.85619" lon="4.60227">
        <ele>313</ele>
        <time>2021-10-19T09:35:11Z</time>
      </trkpt>
      <trkpt lat="45.85508" lon="4.60249">
        <ele>307</ele>
        <time>2021-10-19T09:35:37Z</time>
      </trkpt>
      <trkpt lat="45.85433" lon="4.60631">
        <ele>306</ele>
        <time>2021-10-19T09:36:41Z</time>
      </trkpt>
      <trkpt lat="45.85292" lon="4.61028">
        <ele>306</ele>
        <time>2021-10-19T09:37:54Z</time>
      </trkpt>
      <trkpt lat="45.85219" lon="4.61089">
        <ele>300</ele>
        <time>2021-10-19T09:38:14Z</time>
      </trkpt>
      <trkpt lat="45.85015" lon="4.61118">
        <ele>291</ele>
        <time>2021-10-19T09:39:01Z</time>
      </trkpt>
    </trkseg>
  </trk>
</gpx>